Terminal Aerodrome Forecast
Issued by NWS Jacksonville, FL

Home | Current Version | Previous Version | Text Only | Print | Product List | Glossary On
Versions: 1 2 3 4 5 6 7 8 9 10 11 12 13 14 15 16 17 18 19 20 21 22 23 24 25 26 27 28 29 30
000
FTUS42 KJAX 190536
TAFJAX
TAF
KJAX 190536Z 1906/2006 16010KT P6SM VCSH BKN040 BKN080
     FM190900 16012KT P6SM FEW025 OVC050 WS020/19035KT
     FM191200 17014G24KT P6SM SCT025 OVC050
     FM191400 19022G32KT P6SM OVC025
     FM191700 21025G40KT 1SM +TSRA OVC015CB
     FM192000 24018G28KT 4SM -SHRA OVC025
     FM192300 24015G25KT P6SM SCT025 BKN050
     FM200400 24010KT P6SM SCT250=

USA.gov is the U.S. government's official web portal to all federal, state and local government web resources and services.